createdAt,value
2022-10-07T00:07:55.150Z,1030.78
2022-10-07T00:18:02.220Z,1030.71
2022-10-07T00:28:09.437Z,1030.70
2022-10-07T00:38:16.628Z,1030.76
2022-10-07T00:48:23.620Z,1030.60
2022-10-07T00:58:30.686Z,1030.49
2022-10-07T01:08:37.349Z,1030.45
2022-10-07T01:18:44.022Z,1030.29
2022-10-07T01:28:51.082Z,1030.13
2022-10-07T01:38:57.827Z,1030.05
2022-10-07T01:49:04.599Z,1030.03
2022-10-07T01:59:11.602Z,1029.86
2022-10-07T02:09:18.848Z,1029.77
2022-10-07T02:19:25.690Z,1029.67
2022-10-07T02:29:32.597Z,1029.72
2022-10-07T02:39:39.649Z,1029.60
2022-10-07T02:49:46.350Z,1029.46
2022-10-07T02:59:53.391Z,1029.38
2022-10-07T03:10:00.274Z,1029.41
2022-10-07T03:20:07.497Z,1029.32
2022-10-07T03:30:14.306Z,1029.24
2022-10-07T03:40:20.578Z,1029.19
2022-10-07T03:50:26.985Z,1029.02
2022-10-07T04:00:34.011Z,1028.99
2022-10-07T04:10:41.235Z,1028.94
2022-10-07T04:20:47.778Z,1028.87
2022-10-07T04:30:54.904Z,1028.74
2022-10-07T04:41:01.129Z,1028.75
2022-10-07T04:51:08.305Z,1028.72
2022-10-07T05:01:15.312Z,1028.63
2022-10-07T05:11:22.451Z,1028.43
2022-10-07T05:21:29.332Z,1028.38
2022-10-07T05:31:36.457Z,1028.29
2022-10-07T05:41:45.768Z,1028.20
2022-10-07T05:51:52.735Z,1028.18
2022-10-07T06:02:00.239Z,1028.18
2022-10-07T06:12:07.648Z,1028.24
2022-10-07T06:22:14.841Z,1028.12
2022-10-07T06:32:21.305Z,1028.04
2022-10-07T06:42:28.344Z,1028.08
2022-10-07T06:52:37.129Z,1028.07
2022-10-07T07:02:46.932Z,1028.08
2022-10-07T07:12:54.172Z,1028.09
2022-10-07T07:23:00.976Z,1028.14
2022-10-07T07:33:08.059Z,1028.02
2022-10-07T07:43:14.751Z,1027.88
2022-10-07T07:53:22.007Z,1027.83
2022-10-07T08:03:28.349Z,1027.81
2022-10-07T08:13:35.030Z,1027.80
2022-10-07T08:23:42.094Z,1027.68
2022-10-07T08:33:49.618Z,1027.60
2022-10-07T08:44:00.760Z,1027.45
2022-10-07T08:54:08.021Z,1027.37
2022-10-07T09:04:14.495Z,1027.16
2022-10-07T09:14:21.587Z,1026.98
2022-10-07T09:24:28.329Z,1026.87
2022-10-07T09:34:35.545Z,1026.72
2022-10-07T09:44:42.688Z,1026.63
2022-10-07T09:54:49.586Z,1026.50
2022-10-07T10:04:57.095Z,1026.46
2022-10-07T10:15:04.168Z,1026.36
2022-10-07T10:25:10.557Z,1026.25
2022-10-07T10:35:17.707Z,1026.05
2022-10-07T10:45:24.861Z,1025.88
2022-10-07T10:55:31.728Z,1025.68
2022-10-07T11:05:40.133Z,1025.40
2022-10-07T11:15:47.198Z,1025.21
2022-10-07T11:25:54.483Z,1024.93
2022-10-07T11:36:02.563Z,1024.88
2022-10-07T11:46:11.658Z,1024.69
2022-10-07T11:56:18.994Z,1024.46
2022-10-07T12:06:25.608Z,1024.26
2022-10-07T12:16:32.757Z,1024.16
2022-10-07T12:26:39.804Z,1023.99
2022-10-07T12:36:46.587Z,1023.80
2022-10-07T12:46:53.843Z,1023.65
2022-10-07T12:57:00.917Z,1023.45
2022-10-07T13:07:08.210Z,1023.40
2022-10-07T13:17:15.256Z,1023.22
2022-10-07T13:27:21.982Z,1023.08
2022-10-07T13:37:29.063Z,1023.05
2022-10-07T13:47:36.212Z,1022.94
2022-10-07T13:57:43.526Z,1022.79
2022-10-07T14:07:50.250Z,1022.60
2022-10-07T14:17:57.199Z,1022.44
2022-10-07T14:28:04.404Z,1022.32
2022-10-07T14:38:11.880Z,1022.17
2022-10-07T14:48:18.888Z,1021.95
2022-10-07T14:58:25.535Z,1021.93
2022-10-07T15:08:32.077Z,1021.77
2022-10-07T15:18:43.854Z,1021.68
2022-10-07T15:28:52.172Z,1021.50
2022-10-07T15:38:59.074Z,1021.40
2022-10-07T15:49:05.477Z,1021.40
2022-10-07T15:59:12.612Z,1021.42
2022-10-07T16:09:19.466Z,1021.35
2022-10-07T16:19:26.234Z,1021.41
2022-10-07T16:29:33.058Z,1021.33
2022-10-07T16:39:40.060Z,1021.17
2022-10-07T16:49:47.104Z,1021.18
2022-10-07T16:59:54.473Z,1021.14
2022-10-07T17:10:01.558Z,1021.10
2022-10-07T17:20:10.420Z,1021.10
2022-10-07T17:30:17.147Z,1021.13
2022-10-07T17:40:23.827Z,1021.06
2022-10-07T17:50:30.518Z,1020.97
2022-10-07T18:00:37.978Z,1020.94
2022-10-07T18:10:45.069Z,1020.81
2022-10-07T18:20:51.637Z,1020.64
2022-10-07T18:30:58.742Z,1020.59
2022-10-07T18:41:05.045Z,1020.42
2022-10-07T18:51:11.619Z,1020.34
2022-10-07T19:01:18.469Z,1020.20
2022-10-07T19:11:25.329Z,1020.18
2022-10-07T19:21:32.541Z,1020.14
2022-10-07T19:31:39.525Z,1020.12
2022-10-07T19:41:46.815Z,1020.01
2022-10-07T19:51:53.538Z,1019.92
2022-10-07T20:02:01.455Z,1019.87
2022-10-07T20:12:08.545Z,1019.89
2022-10-07T20:22:15.710Z,1019.74
2022-10-07T20:32:22.866Z,1019.64
2022-10-07T20:42:29.828Z,1019.50
2022-10-07T20:52:37.458Z,1019.44
2022-10-07T21:02:45.059Z,1019.38
2022-10-07T21:12:52.163Z,1019.37
2022-10-07T21:22:58.759Z,1019.33
2022-10-07T21:33:05.910Z,1019.23
2022-10-07T21:43:12.814Z,1019.07
2022-10-07T21:53:19.131Z,1018.95
2022-10-07T22:03:26.298Z,1018.86
2022-10-07T22:13:33.113Z,1018.76
2022-10-07T22:23:40.073Z,1018.57
2022-10-07T22:33:46.945Z,1018.43
2022-10-07T22:43:54.049Z,1018.33
2022-10-07T22:54:00.882Z,1018.20
2022-10-07T23:04:08.037Z,1018.13
2022-10-07T23:14:15.212Z,1018.00
2022-10-07T23:24:22.124Z,1017.93
2022-10-07T23:34:28.750Z,1017.78
2022-10-07T23:44:35.750Z,1017.67
2022-10-07T23:54:42.194Z,1017.60
